sensor_id;sensor_type;location;lat;lon;timestamp;P1;durP1;ratioP1;P2;durP2;ratioP2
15952;SDS011;8075;47.766;8.846;2023-01-15T00:00:46;2.10;;;1.88;;
15952;SDS011;8075;47.766;8.846;2023-01-15T00:03:12;1.67;;;1.57;;
15952;SDS011;8075;47.766;8.846;2023-01-15T00:05:38;1.42;;;1.17;;
15952;SDS011;8075;47.766;8.846;2023-01-15T00:08:04;1.77;;;0.85;;
15952;SDS011;8075;47.766;8.846;2023-01-15T00:10:30;0.90;;;0.60;;
15952;SDS011;8075;47.766;8.846;2023-01-15T00:12:56;1.17;;;0.70;;
15952;SDS011;8075;47.766;8.846;2023-01-15T00:15:22;0.80;;;0.60;;
15952;SDS011;8075;47.766;8.846;2023-01-15T00:17:48;1.70;;;0.80;;
15952;SDS011;8075;47.766;8.846;2023-01-15T00:20:14;0.90;;;0.60;;
15952;SDS011;8075;47.766;8.846;2023-01-15T00:22:40;1.00;;;0.60;;
15952;SDS011;8075;47.766;8.846;2023-01-15T00:25:06;0.90;;;0.50;;
15952;SDS011;8075;47.766;8.846;2023-01-15T00:27:51;0.95;;;0.52;;
15952;SDS011;8075;47.766;8.846;2023-01-15T00:30:17;1.00;;;0.60;;
15952;SDS011;8075;47.766;8.846;2023-01-15T00:32:43;0.80;;;0.60;;
15952;SDS011;8075;47.766;8.846;2023-01-15T00:35:10;0.60;;;0.50;;
15952;SDS011;8075;47.766;8.846;2023-01-15T00:37:36;1.15;;;0.70;;
15952;SDS011;8075;47.766;8.846;2023-01-15T00:40:02;0.63;;;0.60;;
15952;SDS011;8075;47.766;8.846;2023-01-15T00:42:29;1.10;;;0.70;;
15952;SDS011;8075;47.766;8.846;2023-01-15T00:44:55;1.33;;;0.68;;
15952;SDS011;8075;47.766;8.846;2023-01-15T00:47:21;0.73;;;0.50;;
15952;SDS011;8075;47.766;8.846;2023-01-15T00:49:47;1.45;;;0.80;;
15952;SDS011;8075;47.766;8.846;2023-01-15T00:52:14;0.63;;;0.63;;
15952;SDS011;8075;47.766;8.846;2023-01-15T00:54:40;0.98;;;0.70;;
15952;SDS011;8075;47.766;8.846;2023-01-15T00:57:06;1.50;;;0.70;;
15952;SDS011;8075;47.766;8.846;2023-01-15T00:59:45;1.50;;;1.00;;
15952;SDS011;8075;47.766;8.846;2023-01-15T01:02:11;1.10;;;0.70;;
15952;SDS011;8075;47.766;8.846;2023-01-15T01:04:37;1.60;;;0.80;;
15952;SDS011;8075;47.766;8.846;2023-01-15T01:07:04;1.00;;;0.77;;
15952;SDS011;8075;47.766;8.846;2023-01-15T01:09:30;0.93;;;0.60;;
15952;SDS011;8075;47.766;8.846;2023-01-15T01:11:56;0.63;;;0.52;;
15952;SDS011;8075;47.766;8.846;2023-01-15T01:14:22;1.23;;;0.80;;
15952;SDS011;8075;47.766;8.846;2023-01-15T01:16:48;1.60;;;0.63;;
15952;SDS011;8075;47.766;8.846;2023-01-15T01:19:15;0.88;;;0.70;;
15952;SDS011;8075;47.766;8.846;2023-01-15T01:21:41;0.93;;;0.77;;
15952;SDS011;8075;47.766;8.846;2023-01-15T01:24:11;0.85;;;0.65;;
15952;SDS011;8075;47.766;8.846;2023-01-15T01:26:37;1.60;;;0.60;;
15952;SDS011;8075;47.766;8.846;2023-01-15T01:29:03;0.80;;;0.60;;
15952;SDS011;8075;47.766;8.846;2023-01-15T01:31:29;0.40;;;0.40;;
15952;SDS011;8075;47.766;8.846;2023-01-15T01:33:56;0.88;;;0.60;;
15952;SDS011;8075;47.766;8.846;2023-01-15T01:36:26;0.45;;;0.40;;
15952;SDS011;8075;47.766;8.846;2023-01-15T01:38:52;0.90;;;0.43;;
15952;SDS011;8075;47.766;8.846;2023-01-15T01:41:18;0.57;;;0.50;;
15952;SDS011;8075;47.766;8.846;2023-01-15T01:43:55;0.65;;;0.47;;
15952;SDS011;8075;47.766;8.846;2023-01-15T01:46:21;0.60;;;0.50;;
15952;SDS011;8075;47.766;8.846;2023-01-15T01:48:48;0.80;;;0.40;;
15952;SDS011;8075;47.766;8.846;2023-01-15T01:51:14;1.20;;;0.50;;
15952;SDS011;8075;47.766;8.846;2023-01-15T01:53:41;0.57;;;0.40;;
15952;SDS011;8075;47.766;8.846;2023-01-15T01:56:07;0.75;;;0.40;;
15952;SDS011;8075;47.766;8.846;2023-01-15T01:58:33;0.52;;;0.30;;
15952;SDS011;8075;47.766;8.846;2023-01-15T02:01:00;1.00;;;0.40;;
15952;SDS011;8075;47.766;8.846;2023-01-15T02:03:29;0.80;;;0.40;;
15952;SDS011;8075;47.766;8.846;2023-01-15T02:05:57;1.83;;;0.63;;
15952;SDS011;8075;47.766;8.846;2023-01-15T02:08:24;0.88;;;0.50;;
15952;SDS011;8075;47.766;8.846;2023-01-15T02:10:53;1.23;;;0.52;;
15952;SDS011;8075;47.766;8.846;2023-01-15T02:13:24;0.80;;;0.43;;
15952;SDS011;8075;47.766;8.846;2023-01-15T02:15:54;1.05;;;0.35;;
15952;SDS011;8075;47.766;8.846;2023-01-15T02:21:10;2.05;;;0.30;;
15952;SDS011;8075;47.766;8.846;2023-01-15T02:26:20;0.50;;;0.40;;
15952;SDS011;8075;47.766;8.846;2023-01-15T02:28:50;0.40;;;0.30;;
15952;SDS011;8075;47.766;8.846;2023-01-15T02:31:20;0.40;;;0.40;;
15952;SDS011;8075;47.766;8.846;2023-01-15T02:33:48;0.60;;;0.50;;
15952;SDS011;8075;47.766;8.846;2023-01-15T02:36:17;0.85;;;0.60;;
15952;SDS011;8075;47.766;8.846;2023-01-15T02:38:45;0.60;;;0.40;;
15952;SDS011;8075;47.766;8.846;2023-01-15T02:41:11;0.43;;;0.40;;
15952;SDS011;8075;47.766;8.846;2023-01-15T02:43:43;0.50;;;0.40;;
15952;SDS011;8075;47.766;8.846;2023-01-15T02:46:10;0.30;;;0.30;;
15952;SDS011;8075;47.766;8.846;2023-01-15T02:48:37;0.75;;;0.45;;
15952;SDS011;8075;47.766;8.846;2023-01-15T02:51:07;0.35;;;0.30;;
15952;SDS011;8075;47.766;8.846;2023-01-15T02:53:34;0.50;;;0.30;;
15952;SDS011;8075;47.766;8.846;2023-01-15T02:56:04;0.38;;;0.30;;
15952;SDS011;8075;47.766;8.846;2023-01-15T02:58:34;0.60;;;0.30;;
15952;SDS011;8075;47.766;8.846;2023-01-15T03:01:03;0.35;;;0.30;;
15952;SDS011;8075;47.766;8.846;2023-01-15T03:03:38;0.60;;;0.40;;
15952;SDS011;8075;47.766;8.846;2023-01-15T03:06:09;0.60;;;0.40;;
15952;SDS011;8075;47.766;8.846;2023-01-15T03:08:36;0.95;;;0.40;;
15952;SDS011;8075;47.766;8.846;2023-01-15T03:18:52;0.67;;;0.50;;
15952;SDS011;8075;47.766;8.846;2023-01-15T03:21:21;0.28;;;0.20;;
15952;SDS011;8075;47.766;8.846;2023-01-15T03:23:50;0.63;;;0.40;;
15952;SDS011;8075;47.766;8.846;2023-01-15T03:26:18;0.85;;;0.30;;
15952;SDS011;8075;47.766;8.846;2023-01-15T03:28:44;0.30;;;0.25;;
15952;SDS011;8075;47.766;8.846;2023-01-15T03:31:11;0.60;;;0.20;;
15952;SDS011;8075;47.766;8.846;2023-01-15T03:33:37;0.30;;;0.28;;
15952;SDS011;8075;47.766;8.846;2023-01-15T03:36:03;0.30;;;0.30;;
15952;SDS011;8075;47.766;8.846;2023-01-15T03:38:31;0.75;;;0.30;;
15952;SDS011;8075;47.766;8.846;2023-01-15T03:41:04;1.20;;;0.28;;
15952;SDS011;8075;47.766;8.846;2023-01-15T03:46:25;0.30;;;0.30;;
15952;SDS011;8075;47.766;8.846;2023-01-15T03:48:55;0.40;;;0.28;;
15952;SDS011;8075;47.766;8.846;2023-01-15T03:51:27;0.37;;;0.30;;
15952;SDS011;8075;47.766;8.846;2023-01-15T03:53:55;1.10;;;0.35;;
15952;SDS011;8075;47.766;8.846;2023-01-15T03:56:33;0.47;;;0.30;;
15952;SDS011;8075;47.766;8.846;2023-01-15T03:59:05;0.45;;;0.20;;
15952;SDS011;8075;47.766;8.846;2023-01-15T04:01:35;0.65;;;0.22;;
15952;SDS011;8075;47.766;8.846;2023-01-15T04:04:02;0.45;;;0.20;;
15952;SDS011;8075;47.766;8.846;2023-01-15T04:06:29;0.95;;;0.30;;
15952;SDS011;8075;47.766;8.846;2023-01-15T04:08:56;0.45;;;0.20;;
15952;SDS011;8075;47.766;8.846;2023-01-15T04:11:23;0.50;;;0.30;;
15952;SDS011;8075;47.766;8.846;2023-01-15T04:13:49;0.22;;;0.20;;
15952;SDS011;8075;47.766;8.846;2023-01-15T04:16:16;0.90;;;0.20;;
15952;SDS011;8075;47.766;8.846;2023-01-15T04:18:44;0.30;;;0.30;;
15952;SDS011;8075;47.766;8.846;2023-01-15T04:21:10;0.33;;;0.20;;
15952;SDS011;8075;47.766;8.846;2023-01-15T04:23:36;0.20;;;0.13;;
15952;SDS011;8075;47.766;8.846;2023-01-15T04:26:02;0.15;;;0.15;;
15952;SDS011;8075;47.766;8.846;2023-01-15T04:28:28;0.73;;;0.20;;
15952;SDS011;8075;47.766;8.846;2023-01-15T04:30:55;0.80;;;0.30;;
15952;SDS011;8075;47.766;8.846;2023-01-15T04:33:21;0.32;;;0.20;;
15952;SDS011;8075;47.766;8.846;2023-01-15T04:35:47;0.70;;;0.30;;
15952;SDS011;8075;47.766;8.846;2023-01-15T04:38:13;0.27;;;0.20;;
15952;SDS011;8075;47.766;8.846;2023-01-15T04:40:39;0.20;;;0.20;;
15952;SDS011;8075;47.766;8.846;2023-01-15T04:43:24;0.70;;;0.30;;
15952;SDS011;8075;47.766;8.846;2023-01-15T04:46:08;0.40;;;0.30;;
15952;SDS011;8075;47.766;8.846;2023-01-15T04:48:34;1.27;;;0.20;;
15952;SDS011;8075;47.766;8.846;2023-01-15T04:51:01;0.20;;;0.20;;
15952;SDS011;8075;47.766;8.846;2023-01-15T04:53:28;0.40;;;0.20;;
15952;SDS011;8075;47.766;8.846;2023-01-15T04:55:58;0.60;;;0.30;;
15952;SDS011;8075;47.766;8.846;2023-01-15T04:58:25;0.20;;;0.20;;
15952;SDS011;8075;47.766;8.846;2023-01-15T05:00:51;0.40;;;0.25;;
15952;SDS011;8075;47.766;8.846;2023-01-15T05:03:17;1.25;;;0.20;;
15952;SDS011;8075;47.766;8.846;2023-01-15T05:05:43;0.30;;;0.20;;
15952;SDS011;8075;47.766;8.846;2023-01-15T05:08:09;1.30;;;0.20;;
15952;SDS011;8075;47.766;8.846;2023-01-15T05:10:35;0.43;;;0.20;;
15952;SDS011;8075;47.766;8.846;2023-01-15T05:13:01;0.30;;;0.30;;
15952;SDS011;8075;47.766;8.846;2023-01-15T05:15:27;0.60;;;0.40;;
15952;SDS011;8075;47.766;8.846;2023-01-15T05:17:53;0.25;;;0.25;;
15952;SDS011;8075;47.766;8.846;2023-01-15T05:20:18;0.40;;;0.25;;
15952;SDS011;8075;47.766;8.846;2023-01-15T05:22:44;0.60;;;0.20;;
15952;SDS011;8075;47.766;8.846;2023-01-15T05:25:10;0.30;;;0.20;;
15952;SDS011;8075;47.766;8.846;2023-01-15T05:27:36;1.30;;;0.20;;
15952;SDS011;8075;47.766;8.846;2023-01-15T05:30:03;0.45;;;0.20;;
15952;SDS011;8075;47.766;8.846;2023-01-15T05:32:29;0.80;;;0.22;;
15952;SDS011;8075;47.766;8.846;2023-01-15T05:34:55;0.57;;;0.30;;
15952;SDS011;8075;47.766;8.846;2023-01-15T05:37:21;0.50;;;0.30;;
15952;SDS011;8075;47.766;8.846;2023-01-15T05:39:47;0.40;;;0.20;;
15952;SDS011;8075;47.766;8.846;2023-01-15T05:42:13;0.25;;;0.20;;
15952;SDS011;8075;47.766;8.846;2023-01-15T05:44:42;0.90;;;0.30;;
15952;SDS011;8075;47.766;8.846;2023-01-15T05:47:08;0.43;;;0.20;;
15952;SDS011;8075;47.766;8.846;2023-01-15T05:49:34;0.93;;;0.30;;
15952;SDS011;8075;47.766;8.846;2023-01-15T05:52:00;0.20;;;0.20;;
15952;SDS011;8075;47.766;8.846;2023-01-15T05:54:27;0.30;;;0.20;;
15952;SDS011;8075;47.766;8.846;2023-01-15T05:56:54;0.98;;;0.28;;
15952;SDS011;8075;47.766;8.846;2023-01-15T05:59:21;0.33;;;0.20;;
15952;SDS011;8075;47.766;8.846;2023-01-15T06:01:47;1.13;;;0.30;;
15952;SDS011;8075;47.766;8.846;2023-01-15T06:04:13;0.30;;;0.20;;
15952;SDS011;8075;47.766;8.846;2023-01-15T06:06:40;0.30;;;0.28;;
15952;SDS011;8075;47.766;8.846;2023-01-15T06:09:06;0.40;;;0.20;;
15952;SDS011;8075;47.766;8.846;2023-01-15T06:11:32;0.50;;;0.25;;
15952;SDS011;8075;47.766;8.846;2023-01-15T06:13:58;0.55;;;0.40;;
15952;SDS011;8075;47.766;8.846;2023-01-15T06:16:25;0.40;;;0.40;;
15952;SDS011;8075;47.766;8.846;2023-01-15T06:18:51;0.20;;;0.20;;
15952;SDS011;8075;47.766;8.846;2023-01-15T06:21:17;0.20;;;0.20;;
15952;SDS011;8075;47.766;8.846;2023-01-15T06:23:43;1.10;;;0.23;;
15952;SDS011;8075;47.766;8.846;2023-01-15T06:26:13;0.30;;;0.30;;
15952;SDS011;8075;47.766;8.846;2023-01-15T06:28:40;0.50;;;0.30;;
15952;SDS011;8075;47.766;8.846;2023-01-15T06:31:07;0.33;;;0.20;;
15952;SDS011;8075;47.766;8.846;2023-01-15T06:33:33;0.93;;;0.20;;
15952;SDS011;8075;47.766;8.846;2023-01-15T06:36:09;0.40;;;0.20;;
15952;SDS011;8075;47.766;8.846;2023-01-15T06:38:35;0.30;;;0.20;;
15952;SDS011;8075;47.766;8.846;2023-01-15T06:41:02;0.52;;;0.30;;
15952;SDS011;8075;47.766;8.846;2023-01-15T06:43:28;0.50;;;0.40;;
15952;SDS011;8075;47.766;8.846;2023-01-15T06:46:13;0.70;;;0.30;;
15952;SDS011;8075;47.766;8.846;2023-01-15T06:48:57;1.13;;;0.90;;
15952;SDS011;8075;47.766;8.846;2023-01-15T06:51:23;0.68;;;0.40;;
15952;SDS011;8075;47.766;8.846;2023-01-15T06:53:49;0.40;;;0.30;;
15952;SDS011;8075;47.766;8.846;2023-01-15T06:56:15;0.50;;;0.35;;
15952;SDS011;8075;47.766;8.846;2023-01-15T06:58:42;0.38;;;0.38;;
15952;SDS011;8075;47.766;8.846;2023-01-15T07:01:12;1.00;;;0.25;;
15952;SDS011;8075;47.766;8.846;2023-01-15T07:03:38;0.60;;;0.40;;
15952;SDS011;8075;47.766;8.846;2023-01-15T07:06:08;0.50;;;0.30;;
15952;SDS011;8075;47.766;8.846;2023-01-15T07:08:34;0.38;;;0.28;;
15952;SDS011;8075;47.766;8.846;2023-01-15T07:11:01;0.32;;;0.32;;
15952;SDS011;8075;47.766;8.846;2023-01-15T07:13:27;0.70;;;0.40;;
15952;SDS011;8075;47.766;8.846;2023-01-15T07:15:53;0.50;;;0.32;;
15952;SDS011;8075;47.766;8.846;2023-01-15T07:18:19;0.33;;;0.30;;
15952;SDS011;8075;47.766;8.846;2023-01-15T07:20:45;0.30;;;0.30;;
15952;SDS011;8075;47.766;8.846;2023-01-15T07:23:11;0.15;;;0.15;;
15952;SDS011;8075;47.766;8.846;2023-01-15T07:25:37;0.30;;;0.20;;
15952;SDS011;8075;47.766;8.846;2023-01-15T07:28:03;0.32;;;0.30;;
15952;SDS011;8075;47.766;8.846;2023-01-15T07:30:29;0.40;;;0.30;;
15952;SDS011;8075;47.766;8.846;2023-01-15T07:32:55;0.30;;;0.30;;
15952;SDS011;8075;47.766;8.846;2023-01-15T07:35:21;0.40;;;0.30;;
15952;SDS011;8075;47.766;8.846;2023-01-15T07:37:50;0.60;;;0.40;;
15952;SDS011;8075;47.766;8.846;2023-01-15T07:40:16;0.50;;;0.40;;
15952;SDS011;8075;47.766;8.846;2023-01-15T07:42:42;0.33;;;0.20;;
15952;SDS011;8075;47.766;8.846;2023-01-15T07:45:27;0.20;;;0.20;;
15952;SDS011;8075;47.766;8.846;2023-01-15T07:48:12;0.30;;;0.30;;
15952;SDS011;8075;47.766;8.846;2023-01-15T07:50:56;0.40;;;0.20;;
15952;SDS011;8075;47.766;8.846;2023-01-15T07:53:22;0.65;;;0.22;;
15952;SDS011;8075;47.766;8.846;2023-01-15T07:55:48;0.25;;;0.25;;
15952;SDS011;8075;47.766;8.846;2023-01-15T07:58:14;0.30;;;0.30;;
15952;SDS011;8075;47.766;8.846;2023-01-15T08:00:40;0.52;;;0.30;;
15952;SDS011;8075;47.766;8.846;2023-01-15T08:03:06;1.30;;;0.40;;
15952;SDS011;8075;47.766;8.846;2023-01-15T08:05:33;0.20;;;0.20;;
15952;SDS011;8075;47.766;8.846;2023-01-15T08:07:59;0.30;;;0.30;;
15952;SDS011;8075;47.766;8.846;2023-01-15T08:10:25;0.30;;;0.20;;
15952;SDS011;8075;47.766;8.846;2023-01-15T08:12:51;0.30;;;0.30;;
15952;SDS011;8075;47.766;8.846;2023-01-15T08:15:39;0.60;;;0.40;;
15952;SDS011;8075;47.766;8.846;2023-01-15T08:18:06;0.40;;;0.38;;
15952;SDS011;8075;47.766;8.846;2023-01-15T08:20:33;1.15;;;0.50;;
15952;SDS011;8075;47.766;8.846;2023-01-15T08:23:00;0.50;;;0.30;;
15952;SDS011;8075;47.766;8.846;2023-01-15T08:25:26;0.50;;;0.30;;
15952;SDS011;8075;47.766;8.846;2023-01-15T08:27:53;0.90;;;0.47;;
15952;SDS011;8075;47.766;8.846;2023-01-15T08:30:20;0.50;;;0.30;;
15952;SDS011;8075;47.766;8.846;2023-01-15T08:32:46;0.50;;;0.25;;
15952;SDS011;8075;47.766;8.846;2023-01-15T08:35:12;0.30;;;0.30;;
15952;SDS011;8075;47.766;8.846;2023-01-15T08:37:39;0.60;;;0.20;;
15952;SDS011;8075;47.766;8.846;2023-01-15T08:40:05;0.43;;;0.30;;
15952;SDS011;8075;47.766;8.846;2023-01-15T08:42:32;0.45;;;0.20;;
15952;SDS011;8075;47.766;8.846;2023-01-15T08:44:58;0.20;;;0.20;;
15952;SDS011;8075;47.766;8.846;2023-01-15T08:47:23;0.13;;;0.10;;
15952;SDS011;8075;47.766;8.846;2023-01-15T08:49:49;0.20;;;0.20;;
15952;SDS011;8075;47.766;8.846;2023-01-15T08:52:15;0.40;;;0.30;;
15952;SDS011;8075;47.766;8.846;2023-01-15T08:54:41;0.20;;;0.20;;
15952;SDS011;8075;47.766;8.846;2023-01-15T08:57:08;0.30;;;0.30;;
15952;SDS011;8075;47.766;8.846;2023-01-15T08:59:35;0.40;;;0.40;;
15952;SDS011;8075;47.766;8.846;2023-01-15T09:02:01;0.30;;;0.30;;
15952;SDS011;8075;47.766;8.846;2023-01-15T09:04:27;0.90;;;0.20;;
15952;SDS011;8075;47.766;8.846;2023-01-15T09:06:53;0.43;;;0.30;;
15952;SDS011;8075;47.766;8.846;2023-01-15T09:09:19;0.20;;;0.20;;
15952;SDS011;8075;47.766;8.846;2023-01-15T09:11:45;0.20;;;0.20;;
15952;SDS011;8075;47.766;8.846;2023-01-15T09:14:12;0.63;;;0.20;;
15952;SDS011;8075;47.766;8.846;2023-01-15T09:16:39;1.00;;;0.10;;
15952;SDS011;8075;47.766;8.846;2023-01-15T09:19:05;0.10;;;0.10;;
15952;SDS011;8075;47.766;8.846;2023-01-15T09:21:31;0.17;;;0.17;;
15952;SDS011;8075;47.766;8.846;2023-01-15T09:23:57;1.60;;;0.40;;
15952;SDS011;8075;47.766;8.846;2023-01-15T09:28:52;0.70;;;0.70;;
15952;SDS011;8075;47.766;8.846;2023-01-15T09:31:19;0.47;;;0.47;;
15952;SDS011;8075;47.766;8.846;2023-01-15T09:33:45;0.40;;;0.30;;
15952;SDS011;8075;47.766;8.846;2023-01-15T09:36:14;0.30;;;0.28;;
15952;SDS011;8075;47.766;8.846;2023-01-15T09:38:41;1.30;;;0.40;;
15952;SDS011;8075;47.766;8.846;2023-01-15T09:41:09;0.40;;;0.20;;
15952;SDS011;8075;47.766;8.846;2023-01-15T09:56:57;0.40;;;0.40;;
15952;SDS011;8075;47.766;8.846;2023-01-15T09:59:29;0.73;;;0.73;;
15952;SDS011;8075;47.766;8.846;2023-01-15T10:01:55;0.45;;;0.40;;
15952;SDS011;8075;47.766;8.846;2023-01-15T10:04:33;0.30;;;0.30;;
15952;SDS011;8075;47.766;8.846;2023-01-15T10:09:32;0.50;;;0.50;;
15952;SDS011;8075;47.766;8.846;2023-01-15T10:12:03;0.30;;;0.25;;
15952;SDS011;8075;47.766;8.846;2023-01-15T10:14:54;0.20;;;0.20;;
15952;SDS011;8075;47.766;8.846;2023-01-15T10:17:26;1.75;;;1.13;;
15952;SDS011;8075;47.766;8.846;2023-01-15T10:19:53;1.90;;;1.75;;
15952;SDS011;8075;47.766;8.846;2023-01-15T10:22:40;0.60;;;0.60;;
15952;SDS011;8075;47.766;8.846;2023-01-15T10:25:13;1.23;;;1.13;;
15952;SDS011;8075;47.766;8.846;2023-01-15T10:27:40;0.82;;;0.80;;
15952;SDS011;8075;47.766;8.846;2023-01-15T10:30:14;1.58;;;0.98;;
15952;SDS011;8075;47.766;8.846;2023-01-15T10:32:44;1.15;;;1.05;;
15952;SDS011;8075;47.766;8.846;2023-01-15T10:40:32;0.45;;;0.40;;
15952;SDS011;8075;47.766;8.846;2023-01-15T10:48:24;0.50;;;0.50;;
15952;SDS011;8075;47.766;8.846;2023-01-15T10:50:53;0.40;;;0.40;;
15952;SDS011;8075;47.766;8.846;2023-01-15T10:55:56;0.50;;;0.50;;
15952;SDS011;8075;47.766;8.846;2023-01-15T11:00:51;0.28;;;0.28;;
15952;SDS011;8075;47.766;8.846;2023-01-15T11:03:19;0.40;;;0.30;;
15952;SDS011;8075;47.766;8.846;2023-01-15T11:05:47;0.60;;;0.50;;
15952;SDS011;8075;47.766;8.846;2023-01-15T11:08:21;0.40;;;0.40;;
15952;SDS011;8075;47.766;8.846;2023-01-15T11:11:28;0.90;;;0.50;;
15952;SDS011;8075;47.766;8.846;2023-01-15T11:14:14;0.50;;;0.50;;
15952;SDS011;8075;47.766;8.846;2023-01-15T11:16:58;0.50;;;0.50;;
15952;SDS011;8075;47.766;8.846;2023-01-15T11:19:43;0.45;;;0.40;;
15952;SDS011;8075;47.766;8.846;2023-01-15T11:22:13;0.80;;;0.60;;
15952;SDS011;8075;47.766;8.846;2023-01-15T11:27:13;0.47;;;0.47;;
15952;SDS011;8075;47.766;8.846;2023-01-15T11:29:40;0.50;;;0.30;;
15952;SDS011;8075;47.766;8.846;2023-01-15T11:32:18;0.43;;;0.25;;
15952;SDS011;8075;47.766;8.846;2023-01-15T11:34:55;0.32;;;0.32;;
15952;SDS011;8075;47.766;8.846;2023-01-15T11:37:21;0.40;;;0.30;;
15952;SDS011;8075;47.766;8.846;2023-01-15T11:39:51;1.48;;;0.40;;
15952;SDS011;8075;47.766;8.846;2023-01-15T11:42:17;0.30;;;0.30;;
15952;SDS011;8075;47.766;8.846;2023-01-15T11:45:10;0.30;;;0.30;;
15952;SDS011;8075;47.766;8.846;2023-01-15T11:47:54;0.30;;;0.30;;
15952;SDS011;8075;47.766;8.846;2023-01-15T11:50:39;0.50;;;0.50;;
15952;SDS011;8075;47.766;8.846;2023-01-15T11:53:14;0.98;;;0.30;;
15952;SDS011;8075;47.766;8.846;2023-01-15T11:55:50;0.40;;;0.40;;
15952;SDS011;8075;47.766;8.846;2023-01-15T11:58:17;0.73;;;0.60;;
15952;SDS011;8075;47.766;8.846;2023-01-15T12:00:43;0.40;;;0.40;;
15952;SDS011;8075;47.766;8.846;2023-01-15T12:03:16;0.50;;;0.43;;
15952;SDS011;8075;47.766;8.846;2023-01-15T12:05:44;0.65;;;0.40;;
15952;SDS011;8075;47.766;8.846;2023-01-15T12:27:14;0.70;;;0.70;;
15952;SDS011;8075;47.766;8.846;2023-01-15T12:32:28;1.00;;;0.70;;
15952;SDS011;8075;47.766;8.846;2023-01-15T12:37:52;0.63;;;0.50;;
15952;SDS011;8075;47.766;8.846;2023-01-15T12:40:21;0.68;;;0.60;;
15952;SDS011;8075;47.766;8.846;2023-01-15T12:42:49;0.70;;;0.70;;
15952;SDS011;8075;47.766;8.846;2023-01-15T12:45:36;1.08;;;0.88;;
15952;SDS011;8075;47.766;8.846;2023-01-15T12:48:16;0.70;;;0.60;;
15952;SDS011;8075;47.766;8.846;2023-01-15T12:55:44;1.40;;;0.50;;
15952;SDS011;8075;47.766;8.846;2023-01-15T12:58:27;0.70;;;0.40;;
15952;SDS011;8075;47.766;8.846;2023-01-15T13:01:00;0.68;;;0.45;;
15952;SDS011;8075;47.766;8.846;2023-01-15T13:03:29;0.98;;;0.60;;
15952;SDS011;8075;47.766;8.846;2023-01-15T13:06:02;0.80;;;0.60;;
15952;SDS011;8075;47.766;8.846;2023-01-15T13:08:34;0.60;;;0.50;;
15952;SDS011;8075;47.766;8.846;2023-01-15T13:11:01;0.60;;;0.40;;
15952;SDS011;8075;47.766;8.846;2023-01-15T13:13:28;1.20;;;0.70;;
15952;SDS011;8075;47.766;8.846;2023-01-15T13:18:44;1.00;;;0.55;;
15952;SDS011;8075;47.766;8.846;2023-01-15T13:21:15;1.13;;;0.70;;
15952;SDS011;8075;47.766;8.846;2023-01-15T13:29:29;0.95;;;0.60;;
15952;SDS011;8075;47.766;8.846;2023-01-15T13:34:26;1.23;;;0.80;;
15952;SDS011;8075;47.766;8.846;2023-01-15T13:36:55;1.13;;;0.88;;
15952;SDS011;8075;47.766;8.846;2023-01-15T13:39:24;1.65;;;1.17;;
15952;SDS011;8075;47.766;8.846;2023-01-15T13:41:54;1.13;;;0.90;;
15952;SDS011;8075;47.766;8.846;2023-01-15T13:44:44;0.90;;;0.75;;
15952;SDS011;8075;47.766;8.846;2023-01-15T13:47:12;2.10;;;0.80;;
15952;SDS011;8075;47.766;8.846;2023-01-15T13:49:49;0.80;;;0.60;;
15952;SDS011;8075;47.766;8.846;2023-01-15T13:52:23;0.93;;;0.80;;
15952;SDS011;8075;47.766;8.846;2023-01-15T13:54:51;1.50;;;0.90;;
15952;SDS011;8075;47.766;8.846;2023-01-15T13:59:46;0.77;;;0.60;;
15952;SDS011;8075;47.766;8.846;2023-01-15T14:02:24;0.85;;;0.50;;
15952;SDS011;8075;47.766;8.846;2023-01-15T14:04:50;0.82;;;0.50;;
15952;SDS011;8075;47.766;8.846;2023-01-15T14:07:29;0.52;;;0.40;;
15952;SDS011;8075;47.766;8.846;2023-01-15T14:10:05;1.00;;;0.60;;
15952;SDS011;8075;47.766;8.846;2023-01-15T14:15:16;0.55;;;0.50;;
15952;SDS011;8075;47.766;8.846;2023-01-15T14:17:54;0.52;;;0.50;;
15952;SDS011;8075;47.766;8.846;2023-01-15T14:20:32;1.67;;;0.57;;
15952;SDS011;8075;47.766;8.846;2023-01-15T14:36:22;1.63;;;1.23;;
15952;SDS011;8075;47.766;8.846;2023-01-15T14:38:50;0.85;;;0.80;;
15952;SDS011;8075;47.766;8.846;2023-01-15T14:41:24;0.68;;;0.45;;
15952;SDS011;8075;47.766;8.846;2023-01-15T14:43:50;1.42;;;0.50;;
15952;SDS011;8075;47.766;8.846;2023-01-15T14:48:46;0.65;;;0.40;;
15952;SDS011;8075;47.766;8.846;2023-01-15T14:51:13;0.93;;;0.70;;
15952;SDS011;8075;47.766;8.846;2023-01-15T14:53:51;0.60;;;0.60;;
15952;SDS011;8075;47.766;8.846;2023-01-15T14:56:29;0.77;;;0.77;;
15952;SDS011;8075;47.766;8.846;2023-01-15T15:01:43;1.40;;;1.08;;
15952;SDS011;8075;47.766;8.846;2023-01-15T15:06:46;0.85;;;0.73;;
15952;SDS011;8075;47.766;8.846;2023-01-15T15:09:12;0.60;;;0.50;;
15952;SDS011;8075;47.766;8.846;2023-01-15T15:11:45;1.00;;;0.63;;
15952;SDS011;8075;47.766;8.846;2023-01-15T15:14:31;1.45;;;0.65;;
15952;SDS011;8075;47.766;8.846;2023-01-15T15:17:01;1.73;;;0.80;;
15952;SDS011;8075;47.766;8.846;2023-01-15T15:19:41;1.65;;;0.60;;
15952;SDS011;8075;47.766;8.846;2023-01-15T15:22:09;1.33;;;0.60;;
15952;SDS011;8075;47.766;8.846;2023-01-15T15:24:41;1.20;;;1.10;;
15952;SDS011;8075;47.766;8.846;2023-01-15T15:27:13;1.40;;;0.70;;
15952;SDS011;8075;47.766;8.846;2023-01-15T15:29:41;1.10;;;0.80;;
15952;SDS011;8075;47.766;8.846;2023-01-15T15:32:07;1.02;;;0.90;;
15952;SDS011;8075;47.766;8.846;2023-01-15T15:34:36;1.17;;;0.80;;
15952;SDS011;8075;47.766;8.846;2023-01-15T15:37:04;1.02;;;0.60;;
15952;SDS011;8075;47.766;8.846;2023-01-15T15:39:35;1.55;;;0.82;;
15952;SDS011;8075;47.766;8.846;2023-01-15T15:42:03;1.40;;;0.90;;
15952;SDS011;8075;47.766;8.846;2023-01-15T15:44:55;1.23;;;0.80;;
15952;SDS011;8075;47.766;8.846;2023-01-15T15:47:42;1.08;;;0.80;;
15952;SDS011;8075;47.766;8.846;2023-01-15T15:52:53;2.20;;;1.60;;
15952;SDS011;8075;47.766;8.846;2023-01-15T15:55:22;1.88;;;1.00;;
15952;SDS011;8075;47.766;8.846;2023-01-15T15:57:50;2.30;;;1.27;;
15952;SDS011;8075;47.766;8.846;2023-01-15T16:00:18;1.60;;;1.33;;
15952;SDS011;8075;47.766;8.846;2023-01-15T16:02:45;3.00;;;1.40;;
15952;SDS011;8075;47.766;8.846;2023-01-15T16:05:27;2.00;;;1.10;;
15952;SDS011;8075;47.766;8.846;2023-01-15T16:08:06;2.50;;;1.52;;
15952;SDS011;8075;47.766;8.846;2023-01-15T16:10:33;3.22;;;1.50;;
15952;SDS011;8075;47.766;8.846;2023-01-15T16:13:00;2.35;;;1.27;;
15952;SDS011;8075;47.766;8.846;2023-01-15T16:15:49;1.40;;;1.02;;
15952;SDS011;8075;47.766;8.846;2023-01-15T16:18:24;2.72;;;1.20;;
15952;SDS011;8075;47.766;8.846;2023-01-15T16:20:50;2.07;;;0.97;;
15952;SDS011;8075;47.766;8.846;2023-01-15T16:23:18;1.40;;;0.88;;
15952;SDS011;8075;47.766;8.846;2023-01-15T16:25:53;2.40;;;1.27;;
15952;SDS011;8075;47.766;8.846;2023-01-15T16:28:27;1.53;;;0.93;;
15952;SDS011;8075;47.766;8.846;2023-01-15T16:30:58;1.40;;;0.85;;
15952;SDS011;8075;47.766;8.846;2023-01-15T16:33:24;1.63;;;0.90;;
15952;SDS011;8075;47.766;8.846;2023-01-15T16:35:54;1.35;;;0.95;;
15952;SDS011;8075;47.766;8.846;2023-01-15T16:38:23;2.53;;;1.10;;
15952;SDS011;8075;47.766;8.846;2023-01-15T16:40:50;1.92;;;1.20;;
15952;SDS011;8075;47.766;8.846;2023-01-15T16:43:18;1.92;;;1.20;;
15952;SDS011;8075;47.766;8.846;2023-01-15T16:48:31;2.35;;;1.30;;
15952;SDS011;8075;47.766;8.846;2023-01-15T16:51:21;1.30;;;0.80;;
15952;SDS011;8075;47.766;8.846;2023-01-15T16:53:46;2.75;;;1.05;;
15952;SDS011;8075;47.766;8.846;2023-01-15T16:58:57;1.88;;;0.80;;
15952;SDS011;8075;47.766;8.846;2023-01-15T17:01:33;1.42;;;0.85;;
15952;SDS011;8075;47.766;8.846;2023-01-15T17:04:00;2.10;;;0.80;;
15952;SDS011;8075;47.766;8.846;2023-01-15T17:06:28;1.40;;;0.52;;
15952;SDS011;8075;47.766;8.846;2023-01-15T17:08:54;1.60;;;0.77;;
15952;SDS011;8075;47.766;8.846;2023-01-15T17:11:27;1.08;;;0.70;;
15952;SDS011;8075;47.766;8.846;2023-01-15T17:14:36;0.82;;;0.60;;
15952;SDS011;8075;47.766;8.846;2023-01-15T17:16:42;2.10;;;0.80;;
15952;SDS011;8075;47.766;8.846;2023-01-15T17:19:08;0.85;;;0.68;;
15952;SDS011;8075;47.766;8.846;2023-01-15T17:21:35;0.93;;;0.70;;